Friday, March 23, 2018, 10:50 PM GMT
Back to Local

CYGP, Gaspe, Que.

Location: , , Canada Lat: 48.767
Local Time: 10:50 PM GMT (22:50 GMT) Lon: -64.483
Time Zone: GMT Elev: 108 ft

Show me the last for .
Show Decoded

2018-03-23 22:00 METAR CYGP 232200Z 30006KT 280V360 15SM SCT025 OVC045 01/M04 A2987 RMK SC3SC5
                 SLP118 =
2018-03-23 21:00 METAR CYGP 232100Z 33004KT 310V010 15SM OVC040 01/M04 A2985 RMK SC8 SLP111 =
2018-03-23 20:00 METAR CYGP 232000Z 34006G15KT 320V020 15SM OVC035 02/M04 A2983 RMK SC8 SLP103 =
2018-03-23 19:00 METAR CYGP 231900Z 34009G15KT 310V020 10SM -SN OVC030 02/M04 A2981 RMK SC8
                 SLP099 =
2018-03-23 18:00 METAR CYGP 231800Z 36007KT 300V020 7SM -SN OVC020 01/M04 A2981 RMK SC8 SLP096 =
2018-03-23 17:00 METAR CYGP 231700Z 34010KT 310V030 7SM -SN BKN020 OVC030 01/M04 A2980 RMK SC6SC2
                 SLP094 =
2018-03-23 16:00 METAR CYGP 231600Z 35009G18KT 320V020 6SM -SN BKN020 BKN035 01/M04 A2979 RMK
                 SC5SC2 SLP090 =
2018-03-23 15:00 METAR CYGP 231500Z 36010G16KT 320V030 5SM -SN OVC020 00/M03 A2978 RMK SC8 SLP087
2018-03-23 14:00 METAR CYGP 231400Z 36009G19KT 330V030 5SM -SN OVC015 M00/M04 A2978 RMK SC8
                 SLP086 =
2018-03-23 13:00 METAR CYGP 231300Z 36008G18KT 8SM -SN OVC015 M00/M04 A2977 RMK SC8 SLP083 =
2018-03-23 12:00 METAR CYGP 231200Z 02010G24KT 340V050 8SM -SN OVC015 M01/M04 A2976 RMK SC8
                 SLP079 =
2018-03-23 11:00 METAR CYGP 231100Z 01010G17KT 330V040 8SM -SN OVC015 M01/M03 A2975 RMK SC8
                 SLP076 =
2018-03-23 10:00 METAR CYGP 231000Z 36009G23KT 330V030 8SM -SN OVC015 M01/M03 A2973 RMK SC8
                 SLP070 =
2018-03-23 09:00 METAR CYGP 230900Z 02011G25KT 5SM -SN OVC015 M00/M03 A2973 RMK SC8 SLP070 =
2018-03-23 08:00 METAR CYGP 230800Z 01007G17KT 340V040 5SM -SN OVC015 M01/M03 A2973 RMK SC8 /S01/
                 SLP069 =
2018-03-23 07:00 METAR CYGP 230700Z 02006G15KT 340V060 5SM -SN OVC015 M01/M03 A2974 RMK SC8
                 SLP073 =
2018-03-23 06:52 METAR CYGP 230652Z 01009G15KT 5SM -SN OVC015 M01/M03 A2974 RMK SC8 SLP074 =
2018-03-23 06:00 METAR CYGP 230600Z 02006KT 1 1/2SM -SN OVC015 M01/M03 A2976 RMK SC8 SLP080 =
2018-03-23 05:49 METAR CYGP 230549Z 02010G15KT 350V060 1 1/2SM -SN OVC015 M01/M03 A2976 RMK SC8
                 SLP082 =
2018-03-23 05:00 METAR CYGP 230500Z 01009G15KT 340V050 1SM -SN VV012 M01/M03 A2977 RMK SN8 /S02/
                 SLP085 =
2018-03-23 04:00 METAR CYGP 230400Z 03007G17KT 1SM -SN VV010 M01/M03 A2979 RMK SN8 /S01/ SLP092 =
2018-03-23 03:00 METAR CYGP 230300Z 03012G22KT 1SM -SN VV012 M01/M03 A2981 RMK SN8 SLP099 =
2018-03-23 02:00 METAR CYGP 230200Z 04009KT 1SM -SN VV012 M01/M03 A2985 RMK SN8 SLP111 =
2018-03-23 01:30 METAR CYGP 230130Z 06010G17KT 2SM -SN OVC015 M01/M03 A2986 RMK SN4SC4 SLP117 =
2018-03-23 01:00 METAR CYGP 230100Z 06012G18KT 010V070 3SM -SN OVC018 M00/M04 A2987 RMK SC8
                 SLP119 =
2018-03-23 00:53 METAR CYGP 230053Z 05013G18KT 4SM -SN OVC020 M00/M04 A2987 RMK SC8 SLP118 =
2018-03-23 00:00 METAR CYGP 230000Z 06016G22KT 010V070 15SM BKN020 OVC035 00/M05 A2988 RMK SC6SC2
                 SLP121 =
2018-03-22 23:00 METAR CYGP 222300Z 05008G20KT 15SM BKN022 OVC100 00/M05 A2989 RMK SC5AS3 SLP125

Support USWX by starting your Amazon purchase here.